sensor_id;sensor_type;location;lat;lon;timestamp;pressure;altitude;pressure_sealevel;temperature;humidity
5413;BME280;2729;50.056;8.678;2023-02-14T00:02:07;102286.16;;;3.76;100.00
5413;BME280;2729;50.056;8.678;2023-02-14T00:04:33;102278.34;;;3.75;100.00
5413;BME280;2729;50.056;8.678;2023-02-14T00:07:03;102286.72;;;3.68;100.00
5413;BME280;2729;50.056;8.678;2023-02-14T00:09:30;102289.03;;;3.60;100.00
5413;BME280;2729;50.056;8.678;2023-02-14T00:11:56;102291.94;;;3.69;100.00
5413;BME280;2729;50.056;8.678;2023-02-14T00:14:22;102291.38;;;3.78;100.00
5413;BME280;2729;50.056;8.678;2023-02-14T00:17:06;102286.94;;;3.74;100.00
5413;BME280;2729;50.056;8.678;2023-02-14T00:19:32;102292.91;;;3.73;100.00
5413;BME280;2729;50.056;8.678;2023-02-14T00:22:01;102294.13;;;3.82;100.00
5413;BME280;2729;50.056;8.678;2023-02-14T00:24:27;102296.47;;;3.76;100.00
5413;BME280;2729;50.056;8.678;2023-02-14T00:26:53;102296.69;;;3.82;100.00
5413;BME280;2729;50.056;8.678;2023-02-14T00:29:25;102290.03;;;3.89;100.00
5413;BME280;2729;50.056;8.678;2023-02-14T00:31:51;102285.69;;;3.88;100.00
5413;BME280;2729;50.056;8.678;2023-02-14T00:34:17;102282.69;;;3.76;100.00
5413;BME280;2729;50.056;8.678;2023-02-14T00:36:44;102285.00;;;3.68;100.00
5413;BME280;2729;50.056;8.678;2023-02-14T00:39:11;102287.81;;;3.50;100.00
5413;BME280;2729;50.056;8.678;2023-02-14T00:41:39;102291.06;;;3.69;100.00
5413;BME280;2729;50.056;8.678;2023-02-14T00:44:05;102293.84;;;3.75;100.00
5413;BME280;2729;50.056;8.678;2023-02-14T00:46:32;102286.94;;;3.74;100.00
5413;BME280;2729;50.056;8.678;2023-02-14T00:48:58;102293.63;;;3.69;100.00
5413;BME280;2729;50.056;8.678;2023-02-14T00:51:24;102283.72;;;3.81;100.00
5413;BME280;2729;50.056;8.678;2023-02-14T00:53:50;102287.44;;;3.64;100.00
5413;BME280;2729;50.056;8.678;2023-02-14T00:56:17;102287.59;;;3.68;100.00
5413;BME280;2729;50.056;8.678;2023-02-14T00:58:44;102283.91;;;3.62;100.00
5413;BME280;2729;50.056;8.678;2023-02-14T01:01:10;102287.03;;;3.53;100.00
5413;BME280;2729;50.056;8.678;2023-02-14T01:03:37;102289.50;;;3.50;100.00
5413;BME280;2729;50.056;8.678;2023-02-14T01:06:03;102283.41;;;3.48;100.00
5413;BME280;2729;50.056;8.678;2023-02-14T01:08:30;102280.41;;;3.60;100.00
5413;BME280;2729;50.056;8.678;2023-02-14T01:10:56;102286.31;;;3.57;100.00
5413;BME280;2729;50.056;8.678;2023-02-14T01:13:22;102280.78;;;3.46;100.00
5413;BME280;2729;50.056;8.678;2023-02-14T01:15:49;102280.56;;;3.40;100.00
5413;BME280;2729;50.056;8.678;2023-02-14T01:18:17;102283.84;;;3.36;100.00
5413;BME280;2729;50.056;8.678;2023-02-14T01:20:44;102284.19;;;3.45;100.00
5413;BME280;2729;50.056;8.678;2023-02-14T01:23:10;102286.75;;;3.45;100.00
5413;BME280;2729;50.056;8.678;2023-02-14T01:25:37;102284.06;;;3.42;100.00
5413;BME280;2729;50.056;8.678;2023-02-14T01:28:05;102281.25;;;3.36;100.00
5413;BME280;2729;50.056;8.678;2023-02-14T01:30:32;102285.53;;;3.36;100.00
5413;BME280;2729;50.056;8.678;2023-02-14T01:32:58;102283.69;;;3.32;100.00
5413;BME280;2729;50.056;8.678;2023-02-14T01:35:24;102279.63;;;3.38;100.00
5413;BME280;2729;50.056;8.678;2023-02-14T01:37:49;102284.50;;;3.31;100.00
5413;BME280;2729;50.056;8.678;2023-02-14T01:40:16;102286.31;;;3.33;100.00
5413;BME280;2729;50.056;8.678;2023-02-14T01:42:42;102285.84;;;3.21;100.00
5413;BME280;2729;50.056;8.678;2023-02-14T01:45:19;102286.56;;;3.17;100.00
5413;BME280;2729;50.056;8.678;2023-02-14T01:47:50;102284.16;;;3.21;100.00
5413;BME280;2729;50.056;8.678;2023-02-14T01:50:33;102290.78;;;3.15;100.00
5413;BME280;2729;50.056;8.678;2023-02-14T01:53:07;102293.25;;;3.12;100.00
5413;BME280;2729;50.056;8.678;2023-02-14T01:55:38;102296.53;;;3.08;100.00
5413;BME280;2729;50.056;8.678;2023-02-14T01:58:18;102287.84;;;3.06;100.00
5413;BME280;2729;50.056;8.678;2023-02-14T02:00:46;102287.69;;;3.01;100.00
5413;BME280;2729;50.056;8.678;2023-02-14T02:03:33;102286.34;;;2.88;100.00
5413;BME280;2729;50.056;8.678;2023-02-14T02:06:11;102283.06;;;2.93;100.00
5413;BME280;2729;50.056;8.678;2023-02-14T02:11:36;102292.94;;;2.82;100.00
5413;BME280;2729;50.056;8.678;2023-02-14T02:14:03;102289.56;;;2.83;100.00
5413;BME280;2729;50.056;8.678;2023-02-14T02:16:36;102277.66;;;2.86;100.00
5413;BME280;2729;50.056;8.678;2023-02-14T02:19:19;102283.47;;;2.81;100.00
5413;BME280;2729;50.056;8.678;2023-02-14T02:24:34;102271.03;;;2.93;100.00
5413;BME280;2729;50.056;8.678;2023-02-14T02:33:15;102275.19;;;2.67;100.00
5413;BME280;2729;50.056;8.678;2023-02-14T02:36:08;102277.06;;;2.50;100.00
5413;BME280;2729;50.056;8.678;2023-02-14T02:44:17;102272.91;;;2.75;100.00
5413;BME280;2729;50.056;8.678;2023-02-14T02:49:39;102274.94;;;2.40;100.00
5413;BME280;2729;50.056;8.678;2023-02-14T02:52:43;102272.91;;;2.12;100.00
5413;BME280;2729;50.056;8.678;2023-02-14T02:55:39;102274.56;;;2.10;100.00
5413;BME280;2729;50.056;8.678;2023-02-14T02:58:31;102276.25;;;2.10;100.00
5413;BME280;2729;50.056;8.678;2023-02-14T03:01:01;102272.28;;;2.18;100.00
5413;BME280;2729;50.056;8.678;2023-02-14T03:03:31;102267.53;;;2.27;100.00
5413;BME280;2729;50.056;8.678;2023-02-14T03:06:16;102274.13;;;2.20;100.00
5413;BME280;2729;50.056;8.678;2023-02-14T03:08:44;102285.56;;;2.27;100.00
5413;BME280;2729;50.056;8.678;2023-02-14T03:11:12;102274.44;;;2.28;100.00
5413;BME280;2729;50.056;8.678;2023-02-14T03:16:58;102281.94;;;2.03;100.00
5413;BME280;2729;50.056;8.678;2023-02-14T03:19:53;102278.69;;;2.07;100.00
5413;BME280;2729;50.056;8.678;2023-02-14T03:31:18;102277.94;;;2.09;100.00
5413;BME280;2729;50.056;8.678;2023-02-14T03:33:49;102278.88;;;2.11;100.00
5413;BME280;2729;50.056;8.678;2023-02-14T03:36:26;102275.38;;;2.09;100.00
5413;BME280;2729;50.056;8.678;2023-02-14T03:39:07;102273.59;;;2.08;100.00
5413;BME280;2729;50.056;8.678;2023-02-14T03:41:39;102275.44;;;2.11;100.00
5413;BME280;2729;50.056;8.678;2023-02-14T03:44:08;102283.84;;;2.07;100.00
5413;BME280;2729;50.056;8.678;2023-02-14T03:46:39;102278.94;;;1.92;100.00
5413;BME280;2729;50.056;8.678;2023-02-14T03:49:15;102275.00;;;1.81;100.00
5413;BME280;2729;50.056;8.678;2023-02-14T03:51:45;102283.41;;;1.77;100.00
5413;BME280;2729;50.056;8.678;2023-02-14T03:54:12;102286.81;;;1.76;100.00
5413;BME280;2729;50.056;8.678;2023-02-14T03:56:49;102278.28;;;1.77;100.00
5413;BME280;2729;50.056;8.678;2023-02-14T03:59:22;102281.91;;;1.82;100.00
5413;BME280;2729;50.056;8.678;2023-02-14T04:02:02;102286.00;;;1.77;100.00
5413;BME280;2729;50.056;8.678;2023-02-14T04:04:32;102281.78;;;1.79;100.00
5413;BME280;2729;50.056;8.678;2023-02-14T04:07:18;102280.78;;;1.75;100.00
5413;BME280;2729;50.056;8.678;2023-02-14T04:09:44;102292.03;;;1.58;100.00
5413;BME280;2729;50.056;8.678;2023-02-14T04:12:10;102293.78;;;1.59;100.00
5413;BME280;2729;50.056;8.678;2023-02-14T04:14:37;102290.41;;;1.60;100.00
5413;BME280;2729;50.056;8.678;2023-02-14T04:17:03;102291.91;;;1.55;100.00
5413;BME280;2729;50.056;8.678;2023-02-14T04:19:48;102294.34;;;1.52;100.00
5413;BME280;2729;50.056;8.678;2023-02-14T04:22:14;102298.31;;;1.45;100.00
5413;BME280;2729;50.056;8.678;2023-02-14T04:24:40;102296.50;;;1.43;100.00
5413;BME280;2729;50.056;8.678;2023-02-14T04:27:06;102295.66;;;1.24;100.00
5413;BME280;2729;50.056;8.678;2023-02-14T04:29:40;102295.03;;;1.11;100.00
5413;BME280;2729;50.056;8.678;2023-02-14T04:32:09;102300.03;;;1.08;100.00
5413;BME280;2729;50.056;8.678;2023-02-14T04:34:35;102295.19;;;1.14;100.00
5413;BME280;2729;50.056;8.678;2023-02-14T04:37:02;102301.81;;;1.09;100.00
5413;BME280;2729;50.056;8.678;2023-02-14T04:39:28;102298.50;;;1.11;100.00
5413;BME280;2729;50.056;8.678;2023-02-14T04:41:54;102299.50;;;1.15;100.00
5413;BME280;2729;50.056;8.678;2023-02-14T04:44:21;102299.13;;;1.25;100.00
5413;BME280;2729;50.056;8.678;2023-02-14T04:46:47;102304.53;;;1.31;100.00
5413;BME280;2729;50.056;8.678;2023-02-14T04:49:13;102299.69;;;1.37;100.00
5413;BME280;2729;50.056;8.678;2023-02-14T04:51:39;102303.34;;;1.42;100.00
5413;BME280;2729;50.056;8.678;2023-02-14T04:54:05;102306.84;;;1.64;100.00
5413;BME280;2729;50.056;8.678;2023-02-14T04:56:31;102311.59;;;1.74;100.00
5413;BME280;2729;50.056;8.678;2023-02-14T04:58:57;102312.47;;;1.74;100.00
5413;BME280;2729;50.056;8.678;2023-02-14T05:01:23;102305.31;;;1.67;100.00
5413;BME280;2729;50.056;8.678;2023-02-14T05:03:49;102316.00;;;1.76;100.00
5413;BME280;2729;50.056;8.678;2023-02-14T05:06:15;102308.38;;;1.99;100.00
5413;BME280;2729;50.056;8.678;2023-02-14T05:08:41;102306.47;;;2.14;100.00
5413;BME280;2729;50.056;8.678;2023-02-14T05:11:07;102313.00;;;2.26;100.00
5413;BME280;2729;50.056;8.678;2023-02-14T05:13:33;102314.81;;;2.29;100.00
5413;BME280;2729;50.056;8.678;2023-02-14T05:15:59;102317.72;;;2.37;100.00
5413;BME280;2729;50.056;8.678;2023-02-14T05:18:25;102317.91;;;2.41;100.00
5413;BME280;2729;50.056;8.678;2023-02-14T05:20:52;102314.75;;;2.48;100.00
5413;BME280;2729;50.056;8.678;2023-02-14T05:23:19;102311.03;;;2.61;100.00
5413;BME280;2729;50.056;8.678;2023-02-14T05:25:49;102306.94;;;2.66;100.00
5413;BME280;2729;50.056;8.678;2023-02-14T05:28:17;102313.59;;;2.61;100.00
5413;BME280;2729;50.056;8.678;2023-02-14T05:30:44;102317.06;;;2.62;100.00
5413;BME280;2729;50.056;8.678;2023-02-14T05:33:10;102312.03;;;2.65;100.00
5413;BME280;2729;50.056;8.678;2023-02-14T05:35:36;102315.53;;;2.46;100.00
5413;BME280;2729;50.056;8.678;2023-02-14T05:38:02;102304.47;;;2.48;100.00
5413;BME280;2729;50.056;8.678;2023-02-14T05:40:28;102310.25;;;2.43;100.00
5413;BME280;2729;50.056;8.678;2023-02-14T05:42:54;102314.50;;;2.42;100.00
5413;BME280;2729;50.056;8.678;2023-02-14T05:45:21;102300.94;;;2.46;100.00
5413;BME280;2729;50.056;8.678;2023-02-14T05:47:48;102304.28;;;2.65;100.00
5413;BME280;2729;50.056;8.678;2023-02-14T05:50:14;102302.06;;;2.53;100.00
5413;BME280;2729;50.056;8.678;2023-02-14T05:52:40;102299.69;;;2.57;100.00
5413;BME280;2729;50.056;8.678;2023-02-14T05:55:07;102301.19;;;2.73;100.00
5413;BME280;2729;50.056;8.678;2023-02-14T05:57:34;102298.03;;;2.80;100.00
5413;BME280;2729;50.056;8.678;2023-02-14T06:00:00;102299.56;;;2.75;100.00
5413;BME280;2729;50.056;8.678;2023-02-14T06:02:26;102310.50;;;2.70;100.00
5413;BME280;2729;50.056;8.678;2023-02-14T06:04:52;102304.09;;;2.81;100.00
5413;BME280;2729;50.056;8.678;2023-02-14T06:07:18;102301.91;;;2.92;100.00
5413;BME280;2729;50.056;8.678;2023-02-14T06:09:44;102301.81;;;2.88;100.00
5413;BME280;2729;50.056;8.678;2023-02-14T06:12:10;102303.31;;;2.83;100.00
5413;BME280;2729;50.056;8.678;2023-02-14T06:14:36;102305.16;;;2.86;100.00
5413;BME280;2729;50.056;8.678;2023-02-14T06:17:02;102306.03;;;3.09;100.00
5413;BME280;2729;50.056;8.678;2023-02-14T06:19:28;102298.28;;;3.09;100.00
5413;BME280;2729;50.056;8.678;2023-02-14T06:21:54;102292.53;;;3.16;100.00
5413;BME280;2729;50.056;8.678;2023-02-14T06:24:20;102298.69;;;3.19;100.00
5413;BME280;2729;50.056;8.678;2023-02-14T06:26:46;102306.44;;;3.19;100.00
5413;BME280;2729;50.056;8.678;2023-02-14T06:29:12;102307.06;;;3.36;100.00
5413;BME280;2729;50.056;8.678;2023-02-14T06:31:38;102306.38;;;3.18;100.00
5413;BME280;2729;50.056;8.678;2023-02-14T06:34:04;102311.41;;;3.37;100.00
5413;BME280;2729;50.056;8.678;2023-02-14T06:36:30;102306.81;;;3.52;100.00
5413;BME280;2729;50.056;8.678;2023-02-14T06:38:56;102306.38;;;3.40;100.00
5413;BME280;2729;50.056;8.678;2023-02-14T06:41:22;102307.28;;;3.42;100.00
5413;BME280;2729;50.056;8.678;2023-02-14T06:43:48;102305.88;;;3.50;100.00
5413;BME280;2729;50.056;8.678;2023-02-14T06:46:15;102312.09;;;3.55;100.00
5413;BME280;2729;50.056;8.678;2023-02-14T06:48:42;102303.41;;;3.53;100.00
5413;BME280;2729;50.056;8.678;2023-02-14T06:51:08;102309.16;;;3.46;100.00
5413;BME280;2729;50.056;8.678;2023-02-14T06:53:34;102306.53;;;3.45;100.00
5413;BME280;2729;50.056;8.678;2023-02-14T06:56:00;102304.81;;;3.45;100.00
5413;BME280;2729;50.056;8.678;2023-02-14T06:58:26;102310.22;;;3.51;100.00
5413;BME280;2729;50.056;8.678;2023-02-14T07:00:56;102307.84;;;3.58;100.00
5413;BME280;2729;50.056;8.678;2023-02-14T07:03:23;102305.38;;;3.61;100.00
5413;BME280;2729;50.056;8.678;2023-02-14T07:05:50;102306.22;;;3.60;100.00
5413;BME280;2729;50.056;8.678;2023-02-14T07:08:16;102312.84;;;3.53;100.00
5413;BME280;2729;50.056;8.678;2023-02-14T07:10:42;102305.28;;;3.58;100.00
5413;BME280;2729;50.056;8.678;2023-02-14T07:13:08;102312.47;;;3.66;100.00
5413;BME280;2729;50.056;8.678;2023-02-14T07:15:34;102310.44;;;3.58;100.00
5413;BME280;2729;50.056;8.678;2023-02-14T07:18:00;102310.59;;;3.62;100.00
5413;BME280;2729;50.056;8.678;2023-02-14T07:20:26;102309.16;;;3.46;100.00
5413;BME280;2729;50.056;8.678;2023-02-14T07:22:52;102305.16;;;3.54;100.00
5413;BME280;2729;50.056;8.678;2023-02-14T07:25:20;102308.72;;;3.58;100.00
5413;BME280;2729;50.056;8.678;2023-02-14T07:27:46;102309.63;;;3.59;100.00
5413;BME280;2729;50.056;8.678;2023-02-14T07:30:12;102305.66;;;3.44;100.00
5413;BME280;2729;50.056;8.678;2023-02-14T07:32:39;102300.94;;;3.57;100.00
5413;BME280;2729;50.056;8.678;2023-02-14T07:35:06;102301.00;;;3.58;100.00
5413;BME280;2729;50.056;8.678;2023-02-14T07:37:33;102312.13;;;3.81;100.00
5413;BME280;2729;50.056;8.678;2023-02-14T07:40:00;102312.31;;;3.85;100.00
5413;BME280;2729;50.056;8.678;2023-02-14T07:42:26;102312.63;;;3.95;100.00
5413;BME280;2729;50.056;8.678;2023-02-14T07:44:53;102307.50;;;3.96;100.00
5413;BME280;2729;50.056;8.678;2023-02-14T07:47:19;102307.41;;;3.93;100.00
5413;BME280;2729;50.056;8.678;2023-02-14T07:49:45;102311.63;;;3.91;100.00
5413;BME280;2729;50.056;8.678;2023-02-14T07:52:11;102312.34;;;3.87;100.00
5413;BME280;2729;50.056;8.678;2023-02-14T07:54:36;102313.41;;;3.92;100.00
5413;BME280;2729;50.056;8.678;2023-02-14T07:57:04;102312.78;;;3.99;100.00
5413;BME280;2729;50.056;8.678;2023-02-14T07:59:30;102312.78;;;3.99;100.00
5413;BME280;2729;50.056;8.678;2023-02-14T08:01:56;102306.00;;;3.77;100.00
5413;BME280;2729;50.056;8.678;2023-02-14T08:04:22;102306.19;;;4.07;100.00
5413;BME280;2729;50.056;8.678;2023-02-14T08:06:52;102310.41;;;4.05;100.00
5413;BME280;2729;50.056;8.678;2023-02-14T08:09:18;102302.91;;;4.13;100.00
5413;BME280;2729;50.056;8.678;2023-02-14T08:11:51;102302.56;;;4.28;100.00
5413;BME280;2729;50.056;8.678;2023-02-14T08:14:35;102299.41;;;4.36;100.00
5413;BME280;2729;50.056;8.678;2023-02-14T08:17:02;102306.50;;;4.16;100.00
5413;BME280;2729;50.056;8.678;2023-02-14T08:19:28;102307.22;;;4.38;100.00
5413;BME280;2729;50.056;8.678;2023-02-14T08:21:54;102305.09;;;4.26;100.00
5413;BME280;2729;50.056;8.678;2023-02-14T08:24:20;102303.66;;;4.34;100.00
5413;BME280;2729;50.056;8.678;2023-02-14T08:26:46;102296.28;;;4.46;100.00
5413;BME280;2729;50.056;8.678;2023-02-14T08:29:12;102307.31;;;4.41;100.00
5413;BME280;2729;50.056;8.678;2023-02-14T08:31:38;102311.69;;;4.43;100.00
5413;BME280;2729;50.056;8.678;2023-02-14T08:34:04;102312.84;;;4.26;100.00
5413;BME280;2729;50.056;8.678;2023-02-14T08:36:31;102308.19;;;4.41;100.00
5413;BME280;2729;50.056;8.678;2023-02-14T08:38:57;102306.13;;;4.31;100.00
5413;BME280;2729;50.056;8.678;2023-02-14T08:41:23;102302.03;;;4.38;100.00
5413;BME280;2729;50.056;8.678;2023-02-14T08:43:49;102302.88;;;4.37;100.00
5413;BME280;2729;50.056;8.678;2023-02-14T08:46:15;102303.06;;;4.17;100.00
5413;BME280;2729;50.056;8.678;2023-02-14T08:48:44;102310.03;;;3.95;100.00
5413;BME280;2729;50.056;8.678;2023-02-14T08:51:11;102304.47;;;4.08;100.00
5413;BME280;2729;50.056;8.678;2023-02-14T08:53:39;102303.38;;;4.01;100.00
5413;BME280;2729;50.056;8.678;2023-02-14T08:56:07;102306.91;;;4.03;100.00
5413;BME280;2729;50.056;8.678;2023-02-14T08:58:33;102302.25;;;4.18;100.00
5413;BME280;2729;50.056;8.678;2023-02-14T09:01:10;102307.31;;;4.41;100.00
5413;BME280;2729;50.056;8.678;2023-02-14T09:03:37;102303.22;;;4.47;100.00
5413;BME280;2729;50.056;8.678;2023-02-14T09:06:07;102302.66;;;4.31;100.00
5413;BME280;2729;50.056;8.678;2023-02-14T09:08:35;102305.47;;;4.64;100.00
5413;BME280;2729;50.056;8.678;2023-02-14T09:11:09;102306.41;;;4.66;100.00
5413;BME280;2729;50.056;8.678;2023-02-14T09:13:35;102301.28;;;4.67;100.00
5413;BME280;2729;50.056;8.678;2023-02-14T09:16:05;102296.28;;;4.73;100.00
5413;BME280;2729;50.056;8.678;2023-02-14T09:18:31;102299.41;;;4.63;100.00
5413;BME280;2729;50.056;8.678;2023-02-14T09:20:58;102296.97;;;4.68;100.00
5413;BME280;2729;50.056;8.678;2023-02-14T09:23:24;102294.72;;;4.78;100.00
5413;BME280;2729;50.056;8.678;2023-02-14T09:25:50;102296.09;;;4.94;100.00
5413;BME280;2729;50.056;8.678;2023-02-14T09:28:15;102292.84;;;5.01;100.00
5413;BME280;2729;50.056;8.678;2023-02-14T09:30:41;102293.72;;;5.02;100.00
5413;BME280;2729;50.056;8.678;2023-02-14T09:33:07;102293.78;;;5.03;100.00
5413;BME280;2729;50.056;8.678;2023-02-14T09:35:34;102295.66;;;5.09;100.00
5413;BME280;2729;50.056;8.678;2023-02-14T09:38:00;102291.13;;;5.02;100.00
5413;BME280;2729;50.056;8.678;2023-02-14T09:40:26;102295.50;;;4.49;100.00
5413;BME280;2729;50.056;8.678;2023-02-14T09:42:59;102295.25;;;4.41;100.00
5413;BME280;2729;50.056;8.678;2023-02-14T09:45:29;102298.38;;;4.31;100.00
5413;BME280;2729;50.056;8.678;2023-02-14T09:48:06;102291.50;;;4.32;100.00
5413;BME280;2729;50.056;8.678;2023-02-14T09:50:36;102295.81;;;4.58;100.00
5413;BME280;2729;50.056;8.678;2023-02-14T09:55:50;102293.41;;;4.64;100.00
5413;BME280;2729;50.056;8.678;2023-02-14T09:58:22;102289.25;;;4.42;100.00
5413;BME280;2729;50.056;8.678;2023-02-14T10:08:57;102286.06;;;5.05;100.00
5413;BME280;2729;50.056;8.678;2023-02-14T10:11:28;102289.47;;;5.04;100.00
5413;BME280;2729;50.056;8.678;2023-02-14T10:14:03;102294.41;;;4.96;100.00
5413;BME280;2729;50.056;8.678;2023-02-14T10:16:30;102291.59;;;5.17;100.00
5413;BME280;2729;50.056;8.678;2023-02-14T10:19:20;102293.25;;;5.15;100.00
5413;BME280;2729;50.056;8.678;2023-02-14T10:21:53;102298.91;;;5.30;100.00
5413;BME280;2729;50.056;8.678;2023-02-14T10:24:26;102297.13;;;5.28;100.00
5413;BME280;2729;50.056;8.678;2023-02-14T10:26:56;102288.88;;;5.41;100.00
5413;BME280;2729;50.056;8.678;2023-02-14T10:29:27;102293.81;;;5.05;100.00
5413;BME280;2729;50.056;8.678;2023-02-14T10:31:58;102295.09;;;5.19;100.00
5413;BME280;2729;50.056;8.678;2023-02-14T10:34:33;102293.34;;;5.18;100.00
5413;BME280;2729;50.056;8.678;2023-02-14T10:37:17;102289.72;;;5.40;100.00
5413;BME280;2729;50.056;8.678;2023-02-14T10:40:20;102294.84;;;5.10;100.00
5413;BME280;2729;50.056;8.678;2023-02-14T10:43:05;102286.06;;;5.05;100.00
5413;BME280;2729;50.056;8.678;2023-02-14T10:45:45;102285.97;;;5.02;100.00
5413;BME280;2729;50.056;8.678;2023-02-14T10:48:44;102273.34;;;4.84;100.00
5413;BME280;2729;50.056;8.678;2023-02-14T10:51:20;102276.22;;;4.93;100.00
5413;BME280;2729;50.056;8.678;2023-02-14T10:54:11;102269.84;;;4.82;100.00
5413;BME280;2729;50.056;8.678;2023-02-14T10:56:48;102269.84;;;5.10;100.00
5413;BME280;2729;50.056;8.678;2023-02-14T10:59:26;102269.50;;;5.00;100.00
5413;BME280;2729;50.056;8.678;2023-02-14T11:01:56;102266.41;;;5.11;100.00
5413;BME280;2729;50.056;8.678;2023-02-14T11:04:24;102268.13;;;5.11;100.00
5413;BME280;2729;50.056;8.678;2023-02-14T11:06:50;102258.88;;;5.19;100.00
5413;BME280;2729;50.056;8.678;2023-02-14T11:09:17;102252.53;;;5.38;100.00
5413;BME280;2729;50.056;8.678;2023-02-14T11:11:52;102255.09;;;5.36;100.00
5413;BME280;2729;50.056;8.678;2023-02-14T11:14:29;102252.69;;;5.14;100.00
5413;BME280;2729;50.056;8.678;2023-02-14T11:16:57;102248.84;;;5.30;100.00
5413;BME280;2729;50.056;8.678;2023-02-14T11:19:32;102243.31;;;5.47;100.00
5413;BME280;2729;50.056;8.678;2023-02-14T11:21:59;102240.28;;;5.62;100.00
5413;BME280;2729;50.056;8.678;2023-02-14T11:24:38;102236.78;;;5.30;100.00
5413;BME280;2729;50.056;8.678;2023-02-14T11:27:16;102223.16;;;5.36;100.00
5413;BME280;2729;50.056;8.678;2023-02-14T11:29:48;102221.47;;;5.38;100.00
5413;BME280;2729;50.056;8.678;2023-02-14T11:32:24;102225.69;;;5.34;100.00
5413;BME280;2729;50.056;8.678;2023-02-14T11:34:53;102219.63;;;5.34;100.00
5413;BME280;2729;50.056;8.678;2023-02-14T11:39:49;102212.50;;;5.57;100.00
5413;BME280;2729;50.056;8.678;2023-02-14T11:44:57;102210.91;;;5.62;100.00
5413;BME280;2729;50.056;8.678;2023-02-14T11:47:34;102208.50;;;5.36;100.00
5413;BME280;2729;50.056;8.678;2023-02-14T11:50:21;102204.84;;;5.61;100.00
5413;BME280;2729;50.056;8.678;2023-02-14T11:52:53;102200.06;;;5.76;100.00
5413;BME280;2729;50.056;8.678;2023-02-14T11:55:29;102200.63;;;5.33;100.00
5413;BME280;2729;50.056;8.678;2023-02-14T11:57:59;102195.13;;;5.53;100.00
5413;BME280;2729;50.056;8.678;2023-02-14T12:00:26;102200.88;;;5.74;100.00
5413;BME280;2729;50.056;8.678;2023-02-14T12:02:54;102193.28;;;5.48;100.00
5413;BME280;2729;50.056;8.678;2023-02-14T12:05:30;102187.94;;;5.75;100.00
5413;BME280;2729;50.056;8.678;2023-02-14T12:07:58;102186.94;;;5.70;100.00
5413;BME280;2729;50.056;8.678;2023-02-14T12:10:30;102187.50;;;5.90;100.00
5413;BME280;2729;50.056;8.678;2023-02-14T12:13:16;102185.06;;;5.96;100.00
5413;BME280;2729;50.056;8.678;2023-02-14T12:15:55;102172.09;;;5.96;100.00
5413;BME280;2729;50.056;8.678;2023-02-14T12:18:50;102171.81;;;6.20;100.00
5413;BME280;2729;50.056;8.678;2023-02-14T12:21:25;102171.22;;;6.32;100.00
5413;BME280;2729;50.056;8.678;2023-02-14T12:24:23;102170.19;;;6.25;100.00
5413;BME280;2729;50.056;8.678;2023-02-14T12:27:01;102162.31;;;6.21;100.00
5413;BME280;2729;50.056;8.678;2023-02-14T12:29:38;102164.41;;;6.37;100.00
5413;BME280;2729;50.056;8.678;2023-02-14T12:32:18;102159.34;;;6.41;100.00
5413;BME280;2729;50.056;8.678;2023-02-14T12:34:46;102152.97;;;6.27;100.00
5413;BME280;2729;50.056;8.678;2023-02-14T12:37:18;102148.81;;;6.35;100.00
5413;BME280;2729;50.056;8.678;2023-02-14T12:40:10;102148.19;;;6.45;100.00
5413;BME280;2729;50.056;8.678;2023-02-14T12:42:50;102151.03;;;6.58;100.00
5413;BME280;2729;50.056;8.678;2023-02-14T12:51:17;102140.53;;;6.12;100.00
5413;BME280;2729;50.056;8.678;2023-02-14T12:56:39;102131.03;;;6.52;100.00
5413;BME280;2729;50.056;8.678;2023-02-14T12:59:39;102123.56;;;6.27;100.00
5413;BME280;2729;50.056;8.678;2023-02-14T13:02:35;102130.16;;;6.52;100.00
5413;BME280;2729;50.056;8.678;2023-02-14T13:05:15;102116.38;;;6.54;100.00
5413;BME280;2729;50.056;8.678;2023-02-14T13:08:13;102120.41;;;6.40;100.00
5413;BME280;2729;50.056;8.678;2023-02-14T13:11:21;102118.06;;;6.52;100.00
5413;BME280;2729;50.056;8.678;2023-02-14T13:16:50;102104.72;;;6.76;100.00
5413;BME280;2729;50.056;8.678;2023-02-14T13:22:12;102096.03;;;6.74;100.00
5413;BME280;2729;50.056;8.678;2023-02-14T13:24:44;102098.88;;;6.86;100.00
5413;BME280;2729;50.056;8.678;2023-02-14T13:27:20;102091.88;;;6.82;100.00
5413;BME280;2729;50.056;8.678;2023-02-14T13:29:57;102087.03;;;7.00;100.00
5413;BME280;2729;50.056;8.678;2023-02-14T13:32:30;102080.63;;;6.82;100.00
5413;BME280;2729;50.056;8.678;2023-02-14T13:34:58;102074.31;;;7.14;100.00
5413;BME280;2729;50.056;8.678;2023-02-14T13:37:25;102078.50;;;7.06;100.00
5413;BME280;2729;50.056;8.678;2023-02-14T13:39:58;102074.09;;;7.02;100.00
5413;BME280;2729;50.056;8.678;2023-02-14T13:42:48;102071.16;;;7.32;100.00
5413;BME280;2729;50.056;8.678;2023-02-14T13:48:25;102066.97;;;7.40;100.00
5413;BME280;2729;50.056;8.678;2023-02-14T13:50:58;102066.13;;;7.41;100.00
5413;BME280;2729;50.056;8.678;2023-02-14T13:53:50;102061.84;;;7.43;100.00
5413;BME280;2729;50.056;8.678;2023-02-14T13:58:47;102062.59;;;6.89;100.00
5413;BME280;2729;50.056;8.678;2023-02-14T14:03:59;102059.34;;;6.99;100.00
5413;BME280;2729;50.056;8.678;2023-02-14T14:06:25;102056.94;;;7.10;100.00
5413;BME280;2729;50.056;8.678;2023-02-14T14:08:53;102057.69;;;7.04;100.00
5413;BME280;2729;50.056;8.678;2023-02-14T14:13:54;102050.72;;;7.02;100.00
5413;BME280;2729;50.056;8.678;2023-02-14T14:18:53;102046.84;;;7.27;100.00
5413;BME280;2729;50.056;8.678;2023-02-14T14:21:35;102041.63;;;7.25;100.00
5413;BME280;2729;50.056;8.678;2023-02-14T14:27:00;102043.69;;;6.95;100.00
5413;BME280;2729;50.056;8.678;2023-02-14T14:29:30;102031.19;;;7.22;100.00
5413;BME280;2729;50.056;8.678;2023-02-14T14:31:57;102034.91;;;7.38;100.00
5413;BME280;2729;50.056;8.678;2023-02-14T14:34:26;102040.66;;;7.19;100.00
5413;BME280;2729;50.056;8.678;2023-02-14T14:37:06;102036.31;;;7.18;100.00
5413;BME280;2729;50.056;8.678;2023-02-14T14:39:34;102033.13;;;7.35;100.00
5413;BME280;2729;50.056;8.678;2023-02-14T14:42:05;102036.63;;;7.37;100.00
5413;BME280;2729;50.056;8.678;2023-02-14T14:44:33;102039.34;;;6.94;100.00
5413;BME280;2729;50.056;8.678;2023-02-14T14:47:00;102025.47;;;6.93;100.00
5413;BME280;2729;50.056;8.678;2023-02-14T14:49:27;102022.75;;;6.86;100.00